• Join FlightAware (Why Join?)
  • Login
  • US Flag 
05:47PM EDT


 

Airport Tracker/Info


-or-


 

Live Flight TrackerFlight Track Log ✈ DAL4165 ✈ 24-Apr-2013 ✈ KATL - KOKC

Flight Track Log - Related Links

Times and Time Zones

All times are in EDT time to prevent confusion due to time zone crossing. See the DAL4165 flight status page for this flight to view local times or setup timezone preferences in your user account.

Time Position Orientation Groundspeed Altitude Reporting Facility
EDT Latitude Longitude Course Direction KTS MPH feet Rate Location/Type
04:27PM 33.6475 -84.4706 252° West 453 521 2,800  Level Atlanta Center
04:28PM 33.6500 -84.5000 276° West 193 222 3,300 2,100 Climbing Atlanta TRACON
04:29PM 33.8000 -84.3147 270° West  Level FlightAware Approximate
04:29PM 33.6667 -84.5833 284° West 243 280 6,000  Level Atlanta TRACON
04:30PM 33.8001 -84.4360 270° West  Level FlightAware Approximate
04:30PM 33.6833 -84.6667 284° West 254 292 8,800  Level Atlanta TRACON
04:31PM 33.8000 -84.5573 270° West  Level FlightAware Approximate
04:32PM 33.7838 -84.6755 252° West  Level FlightAware Approximate
04:32PM 33.6869 -84.8950 271° West 303 349 13,600  Level Atlanta Center
04:33PM 33.7520 -84.7906 252° West  Level FlightAware Approximate
04:33PM 33.6758 -84.9997 263° West 316 364 15,400  Level Atlanta Center
04:34PM 33.6622 -85.1094 262° West 327 376 16,800 1,200 Climbing Atlanta Center
04:35PM 33.6486 -85.2392 263° West 349 402 17,800 1,200 Climbing Atlanta Center
04:36PM 33.6494 -85.3664 270° West 370 426 19,200 1,440 Climbing Atlanta Center
04:37PM 33.6522 -85.4911 272° West 383 441 20,700 1,500 Climbing Atlanta Center
04:38PM 33.6547 -85.6236 271° West 388 447 22,300 1,560 Climbing Atlanta Center
04:39PM 33.6592 -85.7533 272° West 382 440 23,900 1,380 Climbing Atlanta Center
04:40PM 33.6617 -85.8633 272° West 382 440 25,100 1,380 Climbing Atlanta Center
04:41PM 33.6639 -85.9906 271° West 382 440 26,700 1,380 Climbing Atlanta Center
04:42PM 33.6619 -86.1178 269° West 382 440 27,900 1,200 Climbing Atlanta Center
04:43PM 33.6639 -86.2478 271° West 387 445 29,200 1,140 Climbing Atlanta Center
04:44PM 33.6678 -86.3775 272° West 387 445 30,200 1,260 Climbing Atlanta Center
04:45PM 33.6672 -86.5047 270° West 387 445 31,800 900 Climbing Atlanta Center
04:46PM 33.6689 -86.6297 271° West 382 440 32,000 60 Climbing Atlanta Center
04:47PM 33.6703 -86.7619 271° West 387 445 32,000  Level Atlanta Center
04:48PM 33.6694 -86.8942 270° West 392 451 32,000  Level Atlanta Center
04:49PM 33.6956 -87.0225 284° West 392 451 32,000  Level Atlanta Center
04:50PM 33.7236 -87.1558 284° West 404 465 32,000  Level Atlanta Center
04:51PM 33.7514 -87.2867 284° West 404 465 32,000  Level Atlanta Center
04:53PM 33.7953 -87.4978 284° West 441 507 32,000  Level Memphis Center
04:54PM 33.8256 -87.6342 285° West 431 496 32,000  Level Memphis Center
04:55PM 33.8556 -87.7633 286° West 419 482 32,000  Level Memphis Center
04:56PM 33.8792 -87.8978 282° West 413 475 32,000  Level Memphis Center
04:57PM 33.9067 -88.0319 284° West 413 475 32,000  Level Memphis Center
04:58PM 33.9322 -88.1667 283° West 413 475 32,000 -180 Level Memphis Center
04:59PM 33.9572 -88.2911 284° West 418 481 31,700 -360 Descending Memphis Center
05:00PM 33.9844 -88.4258 284° West 418 481 31,300 -660 Descending Memphis Center
05:01PM 34.0136 -88.5606 285° West 423 487 30,400 -660 Descending Memphis Center
05:02PM 34.0406 -88.7028 283° West 423 487 30,000 -240 Descending Memphis Center
05:03PM 34.0672 -88.8350 284° West 428 493 30,000  Level Memphis Center
05:04PM 34.0939 -88.9700 283° West 417 480 30,000  Level Memphis Center
05:05PM 34.1206 -89.1153 283° West 408 470 30,000  Level Memphis Center
05:06PM 34.1469 -89.2478 284° West 413 475 30,000  Level Memphis Center
05:07PM 34.1731 -89.3781 284° West 413 475 30,000  Level Memphis Center
05:08PM 34.1969 -89.5108 282° West 408 470 30,000  Level Memphis Center
05:09PM 34.2208 -89.6414 283° West 408 470 30,000  Level Memphis Center
05:10PM 34.2464 -89.7717 283° West 403 464 30,000  Level Memphis Center
05:11PM 34.2719 -89.9022 283° West 403 464 30,000  Level Memphis Center
05:12PM 34.2911 -90.0203 281° West 403 464 30,000  Level Memphis Center
05:13PM 34.3164 -90.1483 283° West 398 458 30,000  Level Memphis Center
05:14PM 34.3417 -90.2767 283° West 392 451 30,000  Level Memphis Center
05:15PM 34.3647 -90.4075 282° West 392 451 30,000  Level Memphis Center
05:16PM 34.3897 -90.5383 283° West 392 451 30,000  Level Memphis Center
05:17PM 34.4144 -90.6794 282° West 392 451 30,000  Level Memphis Center
05:18PM 34.4392 -90.8078 283° West 392 451 30,000  Level Memphis Center
05:19PM 34.4636 -90.9367 283° West 392 451 30,000  Level Memphis Center
05:20PM 34.4858 -91.0678 282° West 392 451 30,000  Level Memphis Center
05:21PM 34.5081 -91.1939 282° West 392 451 30,000  Level Memphis Center
05:22PM 34.5300 -91.3228 282° West 392 451 30,000  Level Memphis Center
05:23PM 34.5561 -91.4542 284° West 392 451 30,000  Level Memphis Center
05:24PM 34.5758 -91.5856 280° West 392 451 30,000  Level Memphis Center
05:25PM 34.5956 -91.6969 282° West 392 451 30,000  Level Memphis Center
05:26PM 34.6211 -91.8361 283° West 384 442 30,000  Level Memphis Center
05:27PM 34.6403 -91.9650 280° West 384 442 30,000  Level Memphis Center
05:28PM 34.6614 -92.0942 281° West 389 448 30,000  Level Memphis Center
05:29PM 34.6825 -92.2236 281° West 394 453 30,000  Level Memphis Center
05:30PM 34.7014 -92.3503 280° West 394 453 30,000  Level Memphis Center
05:31PM 34.7203 -92.4819 280° West 394 453 30,000  Level Memphis Center
05:32PM 34.7389 -92.6114 280° West 394 453 30,000  Level Memphis Center
05:33PM 34.7572 -92.7383 280° West 394 453 30,000  Level Memphis Center
05:34PM 34.7736 -92.8678 279° West 394 453 30,000  Level Memphis Center
05:35PM 34.7939 -92.9947 281° West 389 448 30,000  Level Memphis Center
05:36PM 34.8081 -93.1089 279° West 389 448 30,000  Level Memphis Center
05:37PM 34.8261 -93.2411 279° West 389 448 30,000  Level Memphis Center
05:38PM 34.8439 -93.3683 280° West 389 448 30,000  Level Memphis Center
05:39PM 34.8617 -93.4928 280° West 389 448 30,000  Level Memphis Center
05:40PM 34.8792 -93.6200 280° West 389 448 30,000  Level Memphis Center
05:41PM 34.8967 -93.7525 279° West 389 448 30,000  Level Memphis Center
05:42PM 34.9119 -93.8769 279° West 389 448 30,000  Level Memphis Center
05:43PM 34.9269 -94.0019 278° West 389 448 30,000  Level Memphis Center
05:44PM 34.9461 -94.1292 280° West 389 448 30,000  Level Memphis Center
05:45PM 34.9611 -94.2542 278° West 389 448 30,000  Level Memphis Center
05:46PM 34.9883 -94.4839 278° West 388 447 30,000  Level Fort Worth Center
05:47PM 35.0056 -94.6050 280° West 381 438 30,000  Level Fort Worth Center
05:48PM 35.0208 -94.7314 278° West 381 438 30,000  Level Fort Worth Center
05:49PM 35.0381 -94.8575 280° West 381 438 30,000  Level Fort Worth Center
05:50PM 35.0553 -94.9814 280° West 381 438 30,000  Level Fort Worth Center
05:51PM 35.0722 -95.1025 280° West 376 433 30,000  Level Fort Worth Center
05:52PM 35.0889 -95.2289 279° West 376 433 30,000  Level Fort Worth Center
05:53PM 35.1036 -95.3503 278° West 371 427 30,000  Level Fort Worth Center
05:54PM 35.1222 -95.4769 280° West 371 427 30,000 -300 Level Fort Worth Center
05:55PM 35.1367 -95.6008 278° West 371 427 29,400 -840 Descending Fort Worth Center
05:56PM 35.1531 -95.7403 278° West 376 433 28,400 -1,020 Descending Fort Worth Center
05:57PM 35.1694 -95.8669 279° West 376 433 27,400 -1,200 Descending Fort Worth Center
05:58PM 35.1769 -95.9708 275° West 365 420 26,100 -1,620 Descending Fort Worth Center
05:59PM 35.1928 -96.0900 279° West 365 420 24,200 -1,920 Descending Fort Worth Center
06:00PM 35.2064 -96.2067 278° West 365 420 22,300 -1,860 Descending Fort Worth Center
06:01PM 35.2181 -96.3258 277° West 365 420 20,500 -1,800 Descending Fort Worth Center
06:02PM 35.2314 -96.4428 278° West 360 414 18,700 -1,680 Descending Fort Worth Center
06:03PM 35.2447 -96.5544 278° West 347 399 17,200 -1,680 Descending Fort Worth Center
06:04PM 35.2392 -96.6714 267° West 347 399 15,400 -1,920 Descending Fort Worth Center
06:05PM 35.2314 -96.7222 259° West 334 384 14,700 -1,200 Descending Fort Worth Center
06:05PM 35.2169 -96.7833 254° West 342 394 14,200 -900 Descending Fort Worth Center
06:06PM 35.2028 -96.8978 261° West 347 399 13,200 -1,140 Descending Fort Worth Center
06:07PM 35.2031 -96.9461 270° West 354 407 12,800 -1,020 Descending Fort Worth Center
06:07PM 35.1950 -97.0172 262° West 354 407 12,200 -1,020 Descending Fort Worth Center
06:08PM 35.1931 -97.0681 267° West 325 374 11,700 -1,020 Descending Fort Worth Center
06:08PM 35.1869 -97.1164 261° West 331 381 11,200 -1,080 Descending Fort Worth Center
06:09PM 35.1869 -97.1697 270° West 247 284 10,500 -1,200 Descending Fort Worth Center
06:09PM 35.1828 -97.2028 261° West 283 326 10,000 -1,500 Descending Fort Worth Center
06:10PM 35.1808 -97.2508 267° West 225 259 9,000 -1,800 Descending Fort Worth Center
06:10PM 35.1767 -97.2789 260° West 252 290 8,200 -2,220 Descending Fort Worth Center
06:11PM 35.1767 -97.3347 270° West 240 276 6,800 -1,500 Descending Fort Worth Center
06:12PM 35.1853 -97.4136 278° West 237 273 6,000 -540 Descending Fort Worth Center
06:12PM 35.1808 -97.4567 263° West 245 282 6,000 -1,020 Level Fort Worth Center
06:13PM 35.1936 -97.4797 304° West 182 209 5,000 -1,560 Descending Fort Worth Center
06:14PM 35.2142 -97.5278 298° West 182 209 3,900 -960 Descending Fort Worth Center
06:14PM 35.2308 -97.5558 306° West 198 228 3,600 -540 Descending Fort Worth Center
06:15PM 35.2433 -97.5789 304° West 184 212 3,400 -600 Descending Fort Worth Center